Time;durP1;ratioP1;P1;durP2;ratioP2;P2;SDS_P1;SDS_P2;PMS_P1;PMS_P2;Temp;Humidity;BMP_temperature;BMP_pressure;BME280_temperature;BME280_humidity;BME280_pressure;Samples;Min_cycle;Max_cycle;Signal;HPM_P1;HPM_P2
2021/08/15 00:00:37;;;;;;;16.92;8.90;;;;;;;24.78;74.00;100451.91;5110294;28;20082;-61
2021/08/15 00:03:03;;;;;;;17.48;9.23;;;;;;;24.69;74.31;100442.31;5110971;28;20498;-63
2021/08/15 00:05:28;;;;;;;20.73;9.70;;;;;;;24.69;74.40;100442.31;5110755;28;20028;-63
2021/08/15 00:07:54;;;;;;;20.98;9.13;;;;;;;24.62;74.86;100435.97;5110574;28;20019;-63
2021/08/15 00:10:20;;;;;;;27.35;10.32;;;;;;;24.63;75.10;100446.72;5110376;28;20038;-62
2021/08/15 00:12:46;;;;;;;22.48;9.73;;;;;;;24.57;75.26;100444.06;5110418;28;20145;-62
2021/08/15 00:15:14;;;;;;;20.92;9.45;;;;;;;24.58;75.26;100451.19;5110253;28;20031;-63
2021/08/15 00:17:40;;;;;;;22.48;10.13;;;;;;;24.57;76.02;100444.06;5110287;28;20042;-63
2021/08/15 00:20:07;;;;;;;26.10;10.48;;;;;;;24.52;76.09;100430.16;5110613;28;20506;-63
2021/08/15 00:22:37;;;;;;;20.27;9.10;;;;;;;24.45;76.07;100433.78;5110813;28;20027;-63
2021/08/15 00:25:02;;;;;;;30.83;10.48;;;;;;;24.48;76.57;100440.72;5110580;28;20042;-62
2021/08/15 00:27:28;;;;;;;17.17;9.60;;;;;;;24.39;76.11;100423.72;5110362;28;20111;-62
2021/08/15 00:29:53;;;;;;;26.85;8.90;;;;;;;24.46;76.37;100437.34;5110170;28;20019;-63
2021/08/15 00:32:19;;;;;;;22.55;9.77;;;;;;;24.38;76.78;100416.53;5110085;28;20024;-63
2021/08/15 00:34:44;;;;;;;22.35;9.02;;;;;;;24.42;76.91;100425.16;5091718;28;20489;-62
2021/08/15 00:37:10;;;;;;;23.23;9.80;;;;;;;24.35;76.91;100416.97;5110251;28;20066;-62
2021/08/15 00:39:35;;;;;;;21.20;9.00;;;;;;;24.40;77.01;100427.28;5091680;28;20024;-62
2021/08/15 00:42:01;;;;;;;23.88;9.30;;;;;;;24.37;76.70;100428.56;5110592;28;20026;-62
2021/08/15 00:44:26;;;;;;;25.45;9.57;;;;;;;24.30;76.39;100424.19;5109888;28;20027;-62
2021/08/15 00:46:51;;;;;;;22.15;9.63;;;;;;;24.33;76.35;100429.22;5110100;28;20114;-62
2021/08/15 00:49:17;;;;;;;25.20;9.45;;;;;;;24.26;76.81;100422.94;5109918;28;20031;-62
2021/08/15 00:51:42;;;;;;;26.58;9.68;;;;;;;24.28;77.10;100426.31;5109826;28;20028;-61
2021/08/15 00:54:08;;;;;;;22.13;8.90;;;;;;;24.25;77.13;100429.50;5110023;28;20029;-61
2021/08/15 00:56:33;;;;;;;25.27;10.50;;;;;;;24.18;77.91;100417.72;5109946;28;20475;-61
2021/08/15 00:59:04;;;;;;;24.50;9.18;;;;;;;24.22;78.02;100428.00;5109627;28;20059;-61
2021/08/15 01:01:32;;;;;;;21.27;9.73;;;;;;;24.19;78.48;100431.19;5109781;28;20027;-62
2021/08/15 01:04:02;;;;;;;16.77;9.05;;;;;;;24.17;78.45;100432.47;5111369;28;20109;-61
2021/08/15 01:06:28;;;;;;;19.73;8.88;;;;;;;24.16;78.78;100430.81;5113880;28;20032;-61
2021/08/15 01:08:53;;;;;;;22.67;9.00;;;;;;;24.16;78.98;100430.81;5113819;28;20022;-61
2021/08/15 01:11:19;;;;;;;25.00;9.30;;;;;;;24.08;79.74;100407.25;5113872;28;20391;-61
2021/08/15 01:13:44;;;;;;;15.13;8.43;;;;;;;24.11;80.43;100417.75;5113562;28;20505;-63
2021/08/15 01:16:10;;;;;;;16.63;8.60;;;;;;;24.16;80.73;100422.59;5113869;28;20503;-62
2021/08/15 01:18:38;;;;;;;25.00;9.90;;;;;;;24.16;80.86;100425.34;5113919;28;20461;-63
2021/08/15 01:21:13;;;;;;;21.38;8.68;;;;;;;24.15;80.52;100427.22;5114124;28;20023;-63
2021/08/15 01:23:40;;;;;;;21.58;9.30;;;;;;;24.14;80.21;100427.44;5113614;28;20439;-62
2021/08/15 01:26:07;;;;;;;17.80;8.45;;;;;;;24.11;79.90;100423.25;5113837;28;20441;-62
2021/08/15 01:28:33;;;;;;;21.65;9.18;;;;;;;24.09;79.27;100419.06;5129622;27;20039;-62
2021/08/15 01:30:59;;;;;;;19.13;9.85;;;;;;;24.05;78.93;100421.38;5113633;28;20024;-62
2021/08/15 01:33:42;;;;;;;19.33;9.27;;;;;;;23.96;79.00;100414.47;5113368;28;20556;-62
2021/08/15 01:36:11;;;;;;;26.83;9.90;;;;;;;24.01;79.52;100416.53;5113483;28;20038;-62
2021/08/15 01:38:38;;;;;;;19.40;9.15;;;;;;;23.97;80.16;100413.44;5113157;28;20020;-63
2021/08/15 01:41:05;;;;;;;13.20;8.75;;;;;;;23.93;80.20;100414.03;5113833;28;20391;-62
2021/08/15 01:43:34;;;;;;;13.50;8.13;;;;;;;23.93;80.40;100416.78;5113480;28;20074;-62
2021/08/15 01:46:00;;;;;;;18.25;8.98;;;;;;;23.89;80.37;100412.81;5113406;28;20383;-62
2021/08/15 01:48:26;;;;;;;17.67;9.02;;;;;;;23.85;79.92;100420.59;5094521;28;20019;-62
2021/08/15 01:50:51;;;;;;;20.70;9.02;;;;;;;23.81;79.92;100413.88;5113067;28;20083;-62
2021/08/15 01:53:20;;;;;;;19.83;8.93;;;;;;;23.78;80.26;100414.31;5113179;28;20027;-62
2021/08/15 01:55:45;;;;;;;21.73;9.10;;;;;;;23.77;80.37;100415.34;5112951;28;20058;-62
2021/08/15 01:58:11;;;;;;;22.45;9.93;;;;;;;23.74;80.71;100409.50;5094764;28;20063;-63
2021/08/15 02:00:39;;;;;;;17.88;9.48;;;;;;;23.67;81.43;100400.47;5094687;28;20055;-63
2021/08/15 02:03:05;;;;;;;21.67;9.27;;;;;;;23.66;81.75;100404.25;5113101;28;20069;-62
2021/08/15 02:05:31;;;;;;;18.80;9.80;;;;;;;23.68;81.81;100413.09;5112673;28;20026;-62
2021/08/15 02:07:56;;;;;;;17.20;9.27;;;;;;;23.60;81.57;100399.66;5112848;28;20035;-62
2021/08/15 02:10:26;;;;;;;23.10;9.65;;;;;;;23.63;82.06;100416.47;5112738;28;20106;-62
2021/08/15 02:12:53;;;;;;;18.30;9.55;;;;;;;23.60;82.35;100411.44;5112726;28;20020;-61
2021/08/15 02:15:19;;;;;;;25.73;9.15;;;;;;;23.59;82.34;100420.72;5111865;28;20090;-61
2021/08/15 02:17:46;;;;;;;23.10;9.38;;;;;;;23.53;82.61;100401.56;5094237;28;20084;-62
2021/08/15 02:20:16;;;;;;;12.68;8.88;;;;;;;23.58;82.90;100415.44;5112459;28;20055;-62
2021/08/15 02:22:42;;;;;;;19.10;9.82;;;;;;;23.55;83.27;100416.72;5112527;28;20043;-61
2021/08/15 02:25:13;;;;;;;17.25;9.32;;;;;;;23.51;83.27;100409.16;5112893;28;20020;-61
2021/08/15 02:27:40;;;;;;;20.35;9.60;;;;;;;23.50;82.58;100418.41;5112591;28;20034;-62
2021/08/15 02:30:07;;;;;;;24.35;10.05;;;;;;;23.41;82.56;100408.78;5112737;28;20497;-61
2021/08/15 02:32:33;;;;;;;19.35;9.10;;;;;;;23.40;82.51;100409.81;5112336;28;20522;-61
2021/08/15 02:34:59;;;;;;;16.02;8.82;;;;;;;23.39;82.80;100406.25;5112218;28;20123;-61
2021/08/15 02:37:24;;;;;;;18.13;8.80;;;;;;;23.35;82.91;100407.75;5112386;28;20031;-62
2021/08/15 02:39:51;;;;;;;15.88;9.25;;;;;;;23.29;82.82;100399.53;5093879;28;20081;-62
2021/08/15 02:42:17;;;;;;;19.73;9.75;;;;;;;23.33;82.63;100409.00;5112377;28;20023;-62
2021/08/15 02:44:42;;;;;;;19.20;9.82;;;;;;;23.32;82.62;100407.31;5112076;28;20388;-63
2021/08/15 02:47:09;;;;;;;23.73;9.43;;;;;;;23.29;83.11;100413.22;5112442;28;20490;-63
2021/08/15 02:49:37;;;;;;;21.65;10.15;;;;;;;23.26;83.38;100417.25;5111938;28;20028;-63
2021/08/15 02:52:03;;;;;;;19.73;10.07;;;;;;;23.24;84.00;100411.13;5112013;28;20024;-62
2021/08/15 02:54:28;;;;;;;17.38;9.52;;;;;;;23.22;83.86;100405.00;5111770;28;20026;-62
2021/08/15 02:56:54;;;;;;;22.20;10.00;;;;;;;23.20;83.99;100406.25;5111974;28;20467;-63
2021/08/15 02:59:19;;;;;;;21.88;9.88;;;;;;;23.14;83.85;100399.75;5111587;28;20055;-62
2021/08/15 03:01:45;;;;;;;19.63;10.07;;;;;;;23.16;84.01;100408.59;5111665;28;20023;-62
2021/08/15 03:04:10;;;;;;;23.65;9.82;;;;;;;23.10;84.29;100401.25;5111793;28;20149;-62
2021/08/15 03:06:36;;;;;;;19.63;10.52;;;;;;;23.13;84.45;100411.75;5111925;28;20030;-62
2021/08/15 03:09:01;;;;;;;17.58;9.80;;;;;;;23.04;84.97;100399.34;5111782;28;20659;-62
2021/08/15 03:11:27;;;;;;;22.20;10.10;;;;;;;23.10;85.11;100412.19;5111488;28;20031;-62
2021/08/15 03:13:52;;;;;;;18.80;9.65;;;;;;;23.08;85.18;100414.28;5111716;28;20019;-62
2021/08/15 03:16:17;;;;;;;18.45;9.38;;;;;;;23.06;85.12;100421.03;5111505;28;20020;-62
2021/08/15 03:18:43;;;;;;;21.85;10.52;;;;;;;22.96;85.65;100410.50;5111265;28;20031;-62
2021/08/15 03:21:08;;;;;;;21.30;10.55;;;;;;;22.99;85.63;100410.06;5093653;28;20019;-62
2021/08/15 03:23:34;;;;;;;17.95;9.40;;;;;;;22.99;85.53;100412.00;5111181;28;20429;-63
2021/08/15 03:25:59;;;;;;;18.50;9.43;;;;;;;22.98;85.50;100405.66;5111338;28;20023;-62
2021/08/15 03:28:25;;;;;;;17.27;9.50;;;;;;;22.95;85.56;100408.81;5093015;28;20399;-61
2021/08/15 03:30:50;;;;;;;17.05;10.38;;;;;;;22.95;85.94;100413.47;5110615;28;20020;-62
2021/08/15 03:33:15;;;;;;;16.77;9.38;;;;;;;22.95;85.46;100413.47;5111542;28;20025;-62
2021/08/15 03:35:41;;;;;;;22.88;10.30;;;;;;;22.90;85.49;100411.38;5093213;28;20130;-62
2021/08/15 03:38:06;;;;;;;19.50;9.40;;;;;;;22.87;85.26;100411.78;5111546;28;20071;-62
2021/08/15 03:40:32;;;;;;;14.38;8.93;;;;;;;22.88;84.93;100416.19;5111159;28;20034;-61
2021/08/15 03:42:57;;;;;;;19.30;9.32;;;;;;;22.82;84.69;100403.38;5111364;28;20478;-61
2021/08/15 03:45:23;;;;;;;21.33;9.75;;;;;;;22.86;85.22;100414.75;5111064;28;20015;-61
2021/08/15 03:47:48;;;;;;;22.73;9.88;;;;;;;22.83;85.31;100410.50;5110775;28;20490;-61
2021/08/15 03:50:13;;;;;;;16.23;9.45;;;;;;;22.84;85.08;100411.38;5092627;28;20019;-62
2021/08/15 03:52:41;;;;;;;15.98;9.38;;;;;;;22.76;84.80;100398.72;5111183;28;20088;-62
2021/08/15 03:55:10;;;;;;;20.70;9.13;;;;;;;22.81;84.67;100411.78;5110941;28;20041;-61
2021/08/15 03:57:36;;;;;;;21.60;9.40;;;;;;;22.83;85.28;100404.22;5111051;28;20031;-61
2021/08/15 04:00:03;;;;;;;14.88;9.35;;;;;;;22.82;85.47;100405.28;5110488;28;20070;-62
2021/08/15 04:02:29;;;;;;;25.90;10.30;;;;;;;22.81;85.77;100406.31;5110632;28;20019;-62
2021/08/15 04:04:54;;;;;;;17.00;9.30;;;;;;;22.83;85.72;100409.69;5092346;28;20030;-61
2021/08/15 04:07:20;;;;;;;21.02;10.02;;;;;;;22.82;85.85;100403.38;5110729;28;20031;-61
2021/08/15 04:09:45;;;;;;;30.17;10.48;;;;;;;22.85;87.10;100402.94;5110759;28;20024;-61
2021/08/15 04:12:11;;;;;;;32.35;11.45;;;;;;;22.73;87.46;100380.00;5110889;28;20024;-61
2021/08/15 04:14:36;;;;;;;22.52;9.70;;;;;;;22.87;87.03;100410.94;5110484;28;20031;-61
2021/08/15 04:17:02;;;;;;;25.20;10.80;;;;;;;22.85;87.24;100408.41;5110456;28;20391;-61
2021/08/15 04:19:27;;;;;;;21.95;10.27;;;;;;;22.86;86.78;100404.63;5110635;28;20032;-62
2021/08/15 04:21:53;;;;;;;25.17;10.90;;;;;;;22.88;86.63;100399.78;5110468;28;20077;-62
2021/08/15 04:24:18;;;;;;;20.65;9.05;;;;;;;22.88;86.04;100391.59;5110760;28;20032;-63
2021/08/15 04:26:44;;;;;;;17.48;10.02;;;;;;;22.96;86.16;100399.56;5110446;28;20024;-63
2021/08/15 04:29:11;;;;;;;21.85;10.38;;;;;;;23.00;85.95;100384.41;5110679;28;20019;-62
2021/08/15 04:31:37;;;;;;;21.17;9.02;;;;;;;23.09;86.25;100390.50;5110184;28;20475;-62
2021/08/15 04:34:02;;;;;;;21.95;9.52;;;;;;;23.17;85.99;100388.38;5110377;28;20027;-62
2021/08/15 04:36:28;;;;;;;14.63;9.30;;;;;;;23.25;85.80;100395.56;5125968;28;20036;-62
2021/08/15 04:38:53;;;;;;;26.25;11.35;;;;;;;23.26;85.85;100381.66;5110231;28;20023;-62
2021/08/15 04:41:19;;;;;;;24.48;11.18;;;;;;;23.42;85.83;100389.41;5110308;28;20023;-62
2021/08/15 04:43:44;;;;;;;20.95;10.82;;;;;;;23.54;86.01;100390.38;5110350;28;20550;-62
2021/08/15 04:46:09;;;;;;;31.95;12.85;;;;;;;23.65;86.07;100389.72;5110329;28;20489;-62
2021/08/15 04:48:35;;;;;;;24.90;11.38;;;;;;;23.78;85.75;100388.81;5110087;28;20019;-62
2021/08/15 04:51:01;;;;;;;21.98;11.45;;;;;;;23.86;84.95;100377.63;5110037;28;20031;-61
2021/08/15 04:53:27;;;;;;;22.40;10.43;;;;;;;24.04;83.76;100388.72;5091813;28;20020;-62
2021/08/15 04:55:53;;;;;;;18.40;10.65;;;;;;;24.18;82.85;100398.53;5110091;28;20047;-61
2021/08/15 04:58:19;;;;;;;19.15;11.50;;;;;;;24.32;81.99;100397.41;5091741;28;20144;-62
2021/08/15 05:00:44;;;;;;;16.00;9.63;;;;;;;24.47;81.58;100394.34;5110396;28;20058;-63
2021/08/15 05:03:11;;;;;;;27.02;10.38;;;;;;;24.62;81.29;100392.94;5109999;28;20023;-62
2021/08/15 05:05:39;;;;;;;24.85;10.52;;;;;;;24.79;80.57;100396.00;5109944;28;20023;-62
2021/08/15 05:08:05;;;;;;;19.95;10.23;;;;;;;24.94;79.91;100388.25;5110090;28;20502;-62
2021/08/15 05:10:30;;;;;;;28.90;11.48;;;;;;;25.12;79.51;100386.34;5109707;28;20098;-62
2021/08/15 05:12:56;;;;;;;17.08;9.73;;;;;;;25.31;78.77;100381.78;5109877;28;20031;-62
2021/08/15 05:15:21;;;;;;;20.38;10.50;;;;;;;25.49;77.74;100390.00;5109795;28;20535;-61
2021/08/15 05:17:47;;;;;;;24.08;10.63;;;;;;;25.67;76.78;100381.75;5091715;28;20027;-62
2021/08/15 05:20:12;;;;;;;21.08;9.73;;;;;;;25.86;75.82;100384.22;5110129;28;20379;-61
2021/08/15 05:22:38;;;;;;;21.85;10.00;;;;;;;26.11;75.18;100384.97;5109828;28;20023;-61
2021/08/15 05:25:04;;;;;;;21.48;9.85;;;;;;;26.31;74.03;100387.44;5109935;28;20016;-62
2021/08/15 05:27:29;;;;;;;23.08;9.65;;;;;;;26.52;72.75;100384.13;5110184;28;20039;-61
2021/08/15 05:29:55;;;;;;;19.85;9.07;;;;;;;26.73;71.61;100375.38;5109616;28;20395;-62
2021/08/15 05:32:20;;;;;;;23.17;10.48;;;;;;;26.91;70.64;100374.38;5109887;28;20023;-61
2021/08/15 05:34:46;;;;;;;19.95;9.05;;;;;;;27.18;69.96;100372.84;5110165;28;20027;-61
2021/08/15 05:37:11;;;;;;;15.23;8.75;;;;;;;27.40;69.14;100373.94;5109832;28;20031;-61
2021/08/15 05:39:36;;;;;;;21.67;9.35;;;;;;;27.54;67.62;100364.31;5109624;28;20019;-62
2021/08/15 05:42:02;;;;;;;18.27;9.55;;;;;;;27.77;66.06;100378.00;5091493;28;20023;-62
2021/08/15 05:44:28;;;;;;;15.27;8.27;;;;;;;27.92;65.01;100370.09;5091605;28;20023;-63
2021/08/15 05:46:53;;;;;;;22.90;9.55;;;;;;;28.13;64.33;100378.50;5109590;28;20068;-62
2021/08/15 05:49:18;;;;;;;17.02;8.68;;;;;;;28.27;63.57;100379.00;5109607;28;20080;-62
2021/08/15 05:51:44;;;;;;;12.13;8.10;;;;;;;28.44;62.49;100366.94;5093953;28;20089;-63
2021/08/15 05:54:09;;;;;;;15.68;7.75;;;;;;;28.66;61.79;100375.31;5113494;28;20031;-62
2021/08/15 05:56:36;;;;;;;13.88;8.70;;;;;;;28.80;60.97;100364.78;5113046;28;20530;-63
2021/08/15 05:59:03;;;;;;;14.27;7.78;;;;;;;28.96;60.46;100369.47;5094733;28;20459;-62
2021/08/15 06:01:33;;;;;;;19.20;8.60;;;;;;;29.18;59.60;100362.09;5112990;28;20020;-63
2021/08/15 06:03:58;;;;;;;16.05;8.00;;;;;;;29.38;58.82;100373.44;5094859;28;20535;-62
2021/08/15 06:06:24;;;;;;;18.55;9.13;;;;;;;29.56;58.08;100370.38;5113023;28;20040;-62
2021/08/15 06:08:49;;;;;;;13.02;8.43;;;;;;;29.72;57.18;100362.00;5113361;28;20032;-62
2021/08/15 06:11:15;;;;;;;15.27;8.40;;;;;;;29.86;56.87;100354.97;5113056;28;20110;-62
2021/08/15 06:13:41;;;;;;;16.67;9.55;;;;;;;30.07;56.06;100364.34;5094442;28;20019;-61
2021/08/15 06:16:06;;;;;;;16.80;10.32;;;;;;;30.26;55.60;100357.38;5113001;28;20076;-61
2021/08/15 06:18:32;;;;;;;19.70;9.60;;;;;;;30.42;54.89;100364.75;5112698;28;20042;-61
2021/08/15 06:20:57;;;;;;;23.50;9.80;;;;;;;30.60;54.20;100364.38;5112801;28;20410;-64
2021/08/15 06:23:22;;;;;;;17.40;9.95;;;;;;;30.70;53.66;100350.59;5112669;28;20028;-62
2021/08/15 06:25:48;;;;;;;17.10;8.77;;;;;;;30.93;52.97;100354.94;5112953;28;20022;-62
2021/08/15 06:28:13;;;;;;;15.48;7.90;;;;;;;31.10;51.02;100367.53;5112688;28;20103;-63
2021/08/15 06:30:39;;;;;;;10.43;6.82;;;;;;;31.24;49.74;100354.84;5112642;28;20051;-62
2021/08/15 06:33:05;;;;;;;8.82;6.80;;;;;;;31.45;48.89;100356.69;5112950;28;20069;-63
2021/08/15 06:35:31;;;;;;;10.02;6.30;;;;;;;31.64;48.33;100357.03;5112491;28;20023;-63
2021/08/15 06:37:57;;;;;;;7.75;6.63;;;;;;;31.76;47.93;100347.38;5112340;28;20031;-62
2021/08/15 06:40:25;;;;;;;12.50;6.10;;;;;;;32.04;47.28;100360.81;5112759;28;20099;-62
2021/08/15 06:42:50;;;;;;;8.90;6.22;;;;;;;32.27;46.15;100360.28;5112079;28;20114;-63
2021/08/15 06:45:19;;;;;;;8.73;6.20;;;;;;;32.46;45.73;100364.25;5112645;28;20077;-63
2021/08/15 06:47:45;;;;;;;10.65;6.90;;;;;;;32.59;44.91;100358.13;5112451;28;20026;-63
2021/08/15 06:50:11;;;;;;;8.32;5.85;;;;;;;32.82;44.69;100365.06;5112108;28;20032;-63
2021/08/15 06:52:36;;;;;;;11.15;6.97;;;;;;;32.98;43.58;100365.94;5093763;28;20118;-63
2021/08/15 06:55:02;;;;;;;14.32;6.90;;;;;;;33.15;43.49;100360.91;5112030;28;20802;-63
2021/08/15 06:57:28;;;;;;;7.60;6.38;;;;;;;33.26;43.31;100360.59;5111881;28;20027;-63
2021/08/15 06:59:54;;;;;;;10.15;5.90;;;;;;;33.42;43.25;100366.97;5111798;28;20453;-62
2021/08/15 07:02:19;;;;;;;9.93;6.53;;;;;;;33.53;43.34;100358.28;5111967;28;20378;-62
2021/08/15 07:04:45;;;;;;;9.70;6.63;;;;;;;33.70;42.93;100360.75;5111881;28;20020;-63
2021/08/15 07:07:11;;;;;;;12.07;6.88;;;;;;;33.82;42.83;100367.63;5112085;28;20071;-63
2021/08/15 07:09:37;;;;;;;7.78;6.07;;;;;;;33.93;42.51;100360.09;5111606;28;20023;-63
2021/08/15 07:12:03;;;;;;;9.27;6.07;;;;;;;34.04;41.89;100356.97;5111706;28;20088;-63
2021/08/15 07:14:29;;;;;;;7.18;5.78;;;;;;;34.12;41.79;100356.38;5111690;28;20518;-63
2021/08/15 07:16:58;;;;;;;9.88;5.80;;;;;;;34.26;41.13;100359.34;5111478;28;20103;-62
2021/08/15 07:19:24;;;;;;;11.80;6.00;;;;;;;34.40;41.05;100361.22;5111607;28;20058;-62
2021/08/15 07:21:51;;;;;;;12.10;5.88;;;;;;;34.53;40.76;100363.34;5111741;28;20035;-62
2021/08/15 07:24:16;;;;;;;10.07;6.00;;;;;;;34.68;40.82;100370.75;5111591;28;20084;-63
2021/08/15 07:26:42;;;;;;;8.65;5.55;;;;;;;34.81;39.78;100364.50;5111303;28;20024;-63
2021/08/15 07:29:07;;;;;;;7.53;5.15;;;;;;;34.94;39.20;100371.41;5111539;28;20030;-63
2021/08/15 07:31:33;;;;;;;8.35;5.20;;;;;;;35.06;38.47;100363.47;5111431;28;20024;-62
2021/08/15 07:33:59;;;;;;;7.32;5.65;;;;;;;35.20;38.27;100361.66;5111462;28;20015;-63
2021/08/15 07:36:25;;;;;;;9.57;5.90;;;;;;;35.28;38.10;100353.47;5092928;28;20165;-62
2021/08/15 07:38:50;;;;;;;7.63;5.47;;;;;;;35.48;37.74;100361.63;5111462;28;20028;-63
2021/08/15 07:41:16;;;;;;;10.07;6.10;;;;;;;35.61;37.33;100351.72;5111197;28;20058;-62
2021/08/15 07:43:41;;;;;;;9.43;5.45;;;;;;;35.73;37.10;100354.91;5092994;28;20024;-62
2021/08/15 07:46:08;;;;;;;9.55;5.30;;;;;;;35.90;36.91;100358.06;5111235;28;20026;-63
2021/08/15 07:48:34;;;;;;;9.63;4.97;;;;;;;36.00;36.54;100358.75;5111110;28;20387;-64
2021/08/15 07:51:00;;;;;;;8.60;5.53;;;;;;;36.16;36.28;100365.78;5110977;28;20035;-63
2021/08/15 07:53:27;;;;;;;9.65;5.82;;;;;;;36.29;35.91;100353.88;5110996;28;20483;-63
2021/08/15 07:55:54;;;;;;;12.23;6.05;;;;;;;36.31;35.97;100343.25;5111089;28;20483;-63
2021/08/15 07:58:20;;;;;;;9.30;5.57;;;;;;;36.48;35.49;100357.50;5111235;28;20463;-63
2021/08/15 08:00:47;;;;;;;8.00;5.13;;;;;;;36.55;35.13;100357.94;5110537;28;20078;-62
2021/08/15 08:03:13;;;;;;;9.10;5.72;;;;;;;36.63;35.63;100348.84;5110657;28;20489;-63
2021/08/15 08:05:38;;;;;;;9.73;5.78;;;;;;;36.67;34.99;100343.47;5110800;28;20475;-63
2021/08/15 08:08:04;;;;;;;7.65;5.15;;;;;;;36.76;34.06;100352.03;5110707;28;20031;-63
2021/08/15 08:10:30;;;;;;;8.82;5.82;;;;;;;36.84;33.96;100349.34;5110852;28;20019;-63
2021/08/15 08:12:56;;;;;;;11.98;6.57;;;;;;;36.89;33.87;100346.47;5110324;28;20024;-63
2021/08/15 08:15:21;;;;;;;6.93;5.70;;;;;;;37.00;33.81;100347.94;5110858;28;20479;-63
2021/08/15 08:17:47;;;;;;;7.53;6.03;;;;;;;37.06;34.18;100337.47;5093243;28;20023;-63
2021/08/15 08:20:12;;;;;;;7.35;5.43;;;;;;;37.17;33.54;100341.75;5111069;28;20016;-63
2021/08/15 08:22:38;;;;;;;5.13;4.63;;;;;;;37.27;33.61;100338.81;5110728;28;20483;-63
2021/08/15 08:25:05;;;;;;;5.55;4.90;;;;;;;37.35;33.26;100336.09;5110568;28;20464;-63
2021/08/15 08:27:30;;;;;;;11.40;4.85;;;;;;;37.39;33.28;100325.13;5110549;28;20027;-63
2021/08/15 08:29:56;;;;;;;7.22;5.53;;;;;;;37.54;33.24;100336.00;5110636;28;20497;-63
2021/08/15 08:32:21;;;;;;;7.43;5.20;;;;;;;37.61;33.04;100322.41;5110848;28;20030;-63
2021/08/15 08:34:47;;;;;;;8.98;5.60;;;;;;;37.74;32.69;100327.19;5110064;28;20107;-64
2021/08/15 08:37:13;;;;;;;6.25;5.65;;;;;;;37.82;32.33;100330.06;5092238;28;20035;-63
2021/08/15 08:39:38;;;;;;;5.93;5.20;;;;;;;37.93;32.10;100320.31;5110486;28;20510;-62
2021/08/15 08:42:05;;;;;;;7.22;5.60;;;;;;;38.00;32.01;100315.09;5111208;28;20020;-62
2021/08/15 08:44:33;;;;;;;6.18;5.50;;;;;;;38.10;31.69;100316.88;5110814;28;20020;-64
2021/08/15 08:47:11;;;;;;;8.00;5.95;;;;;;;38.23;31.29;100308.41;5110559;28;20085;-63
2021/08/15 08:49:41;;;;;;;6.80;5.75;;;;;;;38.22;30.93;100295.56;5110531;28;20030;-64
2021/08/15 08:52:07;;;;;;;9.35;5.35;;;;;;;38.31;31.03;100304.88;5111036;28;20051;-65
2021/08/15 08:54:34;;;;;;;8.60;5.93;;;;;;;38.37;30.74;100303.56;5111126;28;20031;-64
2021/08/15 08:56:59;;;;;;;9.20;6.38;;;;;;;38.45;30.47;100308.44;5111111;28;20072;-65
2021/08/15 08:59:25;;;;;;;7.28;6.05;;;;;;;38.43;30.29;100296.69;5111367;28;20130;-65
2021/08/15 09:01:51;;;;;;;7.65;5.45;;;;;;;38.50;30.41;100308.28;5092121;28;20016;-65
2021/08/15 09:04:17;;;;;;;7.53;6.10;;;;;;;38.60;29.95;100317.63;5110659;28;20046;-63
2021/08/15 09:06:42;;;;;;;6.97;6.03;;;;;;;38.66;29.92;100308.78;5110399;28;20080;-63
2021/08/15 09:09:09;;;;;;;11.80;6.25;;;;;;;38.75;29.66;100306.88;5110726;28;20046;-64
2021/08/15 09:11:35;;;;;;;6.55;5.95;;;;;;;38.80;29.69;100312.31;5110372;28;20524;-64
2021/08/15 09:14:07;;;;;;;8.35;5.63;;;;;;;38.89;29.01;100310.41;5092029;28;20027;-65
2021/08/15 09:17:02;;;;;;;6.40;5.50;;;;;;;38.90;28.71;100298.03;5109921;28;20016;-64
2021/08/15 09:19:35;;;;;;;8.48;6.20;;;;;;;38.97;28.33;100290.00;5096851;28;20036;-65
2021/08/15 09:22:26;;;;;;;6.38;5.43;;;;;;;38.99;28.77;100290.50;5110490;28;20019;-65
2021/08/15 09:25:04;;;;;;;10.43;5.40;;;;;;;38.99;27.86;100275.66;5110992;28;20083;-65
2021/08/15 09:27:34;;;;;;;9.43;5.53;;;;;;;38.99;27.86;100287.72;5113626;28;20118;-66
2021/08/15 09:30:23;;;;;;;7.95;5.45;;;;;;;38.97;28.14;100278.78;5113832;28;20019;-65
2021/08/15 09:32:58;;;;;;;10.38;5.18;;;;;;;38.98;27.57;100274.84;5095340;28;20027;-65
2021/08/15 09:35:26;;;;;;;7.95;6.15;;;;;;;38.97;27.96;100267.53;5095285;28;20034;-65
2021/08/15 09:38:00;;;;;;;6.47;5.50;;;;;;;38.96;27.55;100262.25;5113462;28;20482;-63
2021/08/15 09:40:45;;;;;;;8.27;5.57;;;;;;;38.96;28.02;100265.06;5113980;28;20055;-64
2021/08/15 09:43:17;;;;;;;10.73;5.50;;;;;;;38.94;27.98;100259.75;5113611;28;20031;-64
2021/08/15 09:46:09;;;;;;;6.13;5.00;;;;;;;38.91;27.59;100251.97;5113364;28;20031;-63
2021/08/15 09:48:37;;;;;;;5.72;5.03;;;;;;;38.93;27.36;100255.28;5110189;28;20027;-64
2021/08/15 09:51:14;;;;;;;8.85;5.25;;;;;;;38.90;27.55;100247.50;5095145;28;20103;-64
2021/08/15 09:53:46;;;;;;;7.53;5.40;;;;;;;38.89;26.78;100240.25;5113808;28;20028;-64
2021/08/15 09:56:12;;;;;;;9.65;5.18;;;;;;;38.84;27.02;100240.38;5113234;28;20032;-64
2021/08/15 09:58:38;;;;;;;7.53;5.35;;;;;;;38.82;27.06;100239.06;5113023;28;20059;-64
2021/08/15 10:01:06;;;;;;;8.43;5.25;;;;;;;38.79;26.91;100240.53;5112997;28;20052;-64
2021/08/15 10:03:35;;;;;;;7.93;4.50;;;;;;;38.73;26.72;100239.03;5113314;28;20477;-64
2021/08/15 10:06:01;;;;;;;8.43;5.05;;;;;;;38.68;26.71;100239.16;5095001;28;20023;-64
2021/08/15 10:08:28;;;;;;;5.15;4.65;;;;;;;38.64;26.63;100235.34;5113620;28;20453;-64
2021/08/15 10:10:55;;;;;;;9.65;5.20;;;;;;;38.61;27.10;100233.19;5113392;28;20068;-64
2021/08/15 10:13:20;;;;;;;8.40;5.47;;;;;;;38.58;27.07;100233.81;5113142;28;20110;-63
2021/08/15 10:16:01;;;;;;;6.53;4.57;;;;;;;38.53;26.61;100237.59;5112873;28;20024;-65
2021/08/15 10:18:29;;;;;;;6.97;5.53;;;;;;;38.54;26.90;100235.63;5113127;28;20098;-62
2021/08/15 10:21:06;;;;;;;7.15;5.22;;;;;;;38.49;27.02;100221.72;5112599;28;20027;-62
2021/08/15 10:23:39;;;;;;;8.05;4.75;;;;;;;38.47;26.78;100218.41;5112568;28;20031;-64
2021/08/15 10:26:24;;;;;;;;;;;;;;;38.39;27.15;100224.75;5113106;28;20074;-64
2021/08/15 10:28:51;;;;;;;8.85;4.97;;;;;;;38.41;26.96;100228.09;5112306;28;19958;-64
2021/08/15 10:31:17;;;;;;;6.68;4.68;;;;;;;38.42;27.11;100213.75;5112668;28;20016;-65
2021/08/15 10:33:53;;;;;;;8.23;5.72;;;;;;;38.44;26.96;100211.47;5112106;28;20027;-64
2021/08/15 10:36:27;;;;;;;5.55;5.00;;;;;;;38.45;26.85;100207.50;5111612;28;20076;-64
2021/08/15 10:38:56;;;;;;;7.03;5.47;;;;;;;38.48;26.72;100214.44;5112339;28;20049;-64
2021/08/15 10:41:47;;;;;;;7.63;4.85;;;;;;;38.50;26.28;100206.53;5112305;28;20058;-64
2021/08/15 10:44:15;;;;;;;11.77;5.40;;;;;;;38.46;26.78;100206.34;5112112;28;20039;-64
2021/08/15 10:47:12;;;;;;;6.82;5.20;;;;;;;38.40;26.88;100196.41;5112062;28;20011;-64
2021/08/15 10:50:01;;;;;;;5.88;5.05;;;;;;;38.39;26.68;100193.91;5093667;28;20138;-65
2021/08/15 10:52:38;;;;;;;7.47;4.90;;;;;;;38.33;26.47;100192.44;5112243;28;20107;-64
2021/08/15 10:55:06;;;;;;;7.43;5.10;;;;;;;38.35;26.21;100185.34;5111868;28;20451;-64
2021/08/15 10:57:58;;;;;;;6.55;5.00;;;;;;;38.34;26.63;100177.25;5094157;28;20053;-65
2021/08/15 11:00:29;;;;;;;7.25;5.20;;;;;;;38.34;26.68;100174.44;5108805;28;20107;-64
2021/08/15 11:03:19;;;;;;;9.43;5.30;;;;;;;38.32;26.94;100174.78;5111616;28;20043;-64
2021/08/15 11:05:44;;;;;;;10.90;4.90;;;;;;;38.31;26.66;100172.28;5111512;28;20375;-64
2021/08/15 11:08:31;;;;;;;6.85;4.97;;;;;;;38.29;26.88;100177.38;5111869;28;20118;-64
2021/08/15 11:11:07;;;;;;;7.10;4.63;;;;;;;38.24;26.23;100174.72;5111818;28;20019;-64
2021/08/15 11:13:33;;;;;;;7.90;4.53;;;;;;;38.25;26.54;100168.78;5093604;28;20134;-64
2021/08/15 11:16:27;;;;;;;8.90;4.20;;;;;;;38.22;26.82;100169.44;5111826;28;20024;-64
2021/08/15 11:19:07;;;;;;;7.15;4.72;;;;;;;38.20;26.60;100160.50;5111801;28;20084;-65
2021/08/15 11:22:07;;;;;;;8.02;5.10;;;;;;;38.18;26.17;100162.81;5112113;28;20102;-64